To NAV CANADA Home Page Login to a new session Search on AWWS site Feedback and Comments Disclaimer Vers la page française équivalente Tips FAQ What's new on the site To the Forecasts and Observations / NOTAM section To "File a Flight Plan" website Publications and other links Update of the User's profile FIC Telephone Numbers My Weather Data Folder Route Weather Data Regional Weather Data Local Weather Data To the Forecasts and Observations / NOTAM section
Request Generated 02/24/2017 at 03:39:30 UTC . Weather information available at that time is displayed.

METAR/TAF

BRANDON MUNICIPALITY/MB    

METAR CYBR 240300Z 27006KT 15SM OVC051 M05/M08 A3011 RMK SC8 SLP228=
METAR CYBR 240200Z 26006KT 15SM OVC047 M05/M08 A3012 RMK SC8 SLP229=
METAR CYBR 240100Z 26006KT 15SM OVC050 M05/M08 A3011 RMK SC8 SLP227=

TAF CYBR 232345Z 2400/2412 30008KT P6SM SCT030 TEMPO 2400/2401 BKN030
FM240100 27006KT P6SM OVC030 TEMPO 2401/2412 4SM -SN OVC020
RMK NXT FCST BY 240600Z=
Your time UTC time
Weather data provided by Environment Canada and NAV CANADA